Time;durP1;ratioP1;P1;durP2;ratioP2;P2;SDS_P1;SDS_P2;PMS_P1;PMS_P2;Temp;Humidity;BMP_temperature;BMP_pressure;BME280_temperature;BME280_humidity;BME280_pressure;Samples;Min_cycle;Max_cycle;Signal;HPM_P1;HPM_P2
2023/10/10 00:02:04;;;;;;;6.47;3.35;;;22.70;51.70;;;;;;6225128;27;80372;-65
2023/10/10 00:05:05;;;;;;;3.03;2.50;;;22.70;51.80;;;;;;6225627;28;80108;-65
2023/10/10 00:08:09;;;;;;;3.17;2.60;;;22.80;51.90;;;;;;6224869;27;82484;-65
2023/10/10 00:11:10;;;;;;;3.45;2.92;;;22.80;51.80;;;;;;6223828;28;80348;-65
2023/10/10 00:14:17;;;;;;;4.78;3.38;;;22.80;52.00;;;;;;6225905;28;80359;-66
2023/10/10 00:17:17;;;;;;;4.20;2.90;;;22.80;51.90;;;;;;6220021;27;80927;-66
2023/10/10 00:20:22;;;;;;;3.10;2.80;;;22.80;52.10;;;;;;6214761;28;83062;-66
2023/10/10 00:23:23;;;;;;;3.07;2.77;;;22.80;52.00;;;;;;6202081;28;80875;-65
2023/10/10 00:26:25;;;;;;;3.85;3.05;;;22.80;51.80;;;;;;6211609;28;80644;-65
2023/10/10 00:29:26;;;;;;;2.80;2.60;;;22.80;52.20;;;;;;6214833;28;81443;-64
2023/10/10 00:32:28;;;;;;;3.17;2.75;;;22.70;52.00;;;;;;6199332;28;82347;-64
2023/10/10 00:35:29;;;;;;;4.45;2.65;;;22.70;52.00;;;;;;6216779;28;80123;-64
2023/10/10 00:38:30;;;;;;;4.57;2.80;;;22.70;52.20;;;;;;6223263;28;83240;-65
2023/10/10 00:41:30;;;;;;;3.92;2.90;;;22.70;52.20;;;;;;6235628;28;83384;-65
2023/10/10 00:44:31;;;;;;;3.03;2.72;;;22.70;52.00;;;;;;6238547;27;81596;-66
2023/10/10 00:47:38;;;;;;;3.22;2.60;;;22.70;52.00;;;;;;6223921;27;80519;-65
2023/10/10 00:50:39;;;;;;;3.72;3.17;;;22.70;51.90;;;;;;6224598;27;85608;-66
2023/10/10 00:53:40;;;;;;;3.33;2.95;;;22.70;51.90;;;;;;6222443;27;81576;-65
2023/10/10 00:56:44;;;;;;;3.95;2.75;;;22.80;51.80;;;;;;6206747;28;80324;-64
2023/10/10 00:59:45;;;;;;;4.72;2.95;;;22.70;52.20;;;;;;6200707;28;80856;-61
2023/10/10 01:02:46;;;;;;;4.15;2.85;;;22.70;52.10;;;;;;6211544;28;80540;-62
2023/10/10 01:05:52;;;;;;;4.50;2.90;;;22.70;51.90;;;;;;6216037;28;83629;-62
2023/10/10 01:09:05;;;;;;;4.22;2.72;;;22.70;51.80;;;;;;6224494;28;80672;-61
2023/10/10 01:12:06;;;;;;;4.18;3.20;;;22.70;51.60;;;;;;6213054;27;81910;-61
2023/10/10 01:15:16;;;;;;;4.28;3.08;;;22.70;51.60;;;;;;6216604;28;82817;-62
2023/10/10 01:18:17;;;;;;;5.68;3.15;;;22.70;51.60;;;;;;6198180;28;83873;-62
2023/10/10 01:21:18;;;;;;;3.17;2.70;;;22.70;51.60;;;;;;6196672;28;80992;-63
2023/10/10 01:24:21;;;;;;;4.43;2.70;;;22.80;51.50;;;;;;6209980;28;80465;-62
2023/10/10 01:27:22;;;;;;;4.28;2.67;;;22.80;51.60;;;;;;6196560;28;83641;-62
2023/10/10 01:30:43;;;;;;;2.90;2.60;;;22.70;51.70;;;;;;6205612;28;80727;-61
2023/10/10 01:33:47;;;;;;;3.70;2.60;;;22.80;51.60;;;;;;6210021;27;80998;-61
2023/10/10 01:36:50;;;;;;;2.70;2.40;;;22.80;51.60;;;;;;6216947;28;80974;-59
2023/10/10 01:39:51;;;;;;;3.35;2.70;;;22.80;51.80;;;;;;6223354;28;80554;-61
2023/10/10 01:42:53;;;;;;;2.83;2.50;;;22.80;52.20;;;;;;6222818;27;80542;-62
2023/10/10 01:46:16;;;;;;;4.43;2.75;;;22.70;52.30;;;;;;6210593;28;83460;-61
2023/10/10 01:49:29;;;;;;;4.22;2.95;;;22.70;52.20;;;;;;6221830;28;80896;-62
2023/10/10 01:52:29;;;;;;;3.60;2.83;;;22.70;52.30;;;;;;6235849;27;81827;-62
2023/10/10 01:55:30;;;;;;;2.85;2.55;;;22.70;52.20;;;;;;6227320;28;80559;-62
2023/10/10 01:58:31;;;;;;;3.40;2.50;;;22.70;52.20;;;;;;6229241;27;80570;-63
2023/10/10 02:01:32;;;;;;;2.70;2.50;;;22.70;52.30;;;;;;6226473;28;83397;-62
2023/10/10 02:04:35;;;;;;;4.55;2.97;;;22.70;52.30;;;;;;6220374;28;83504;-61
2023/10/10 02:07:35;;;;;;;3.97;2.83;;;22.70;52.40;;;;;;6204781;28;82603;-61
2023/10/10 02:10:36;;;;;;;3.50;2.55;;;22.70;52.10;;;;;;6222127;28;81623;-63
2023/10/10 02:13:39;;;;;;;3.70;2.88;;;22.70;52.10;;;;;;6209830;28;81468;-62
2023/10/10 02:16:40;;;;;;;3.90;2.83;;;22.80;51.90;;;;;;6213693;28;81075;-61
2023/10/10 02:19:41;;;;;;;3.55;2.42;;;22.80;51.80;;;;;;6219157;28;81655;-62
2023/10/10 02:22:47;;;;;;;4.57;2.55;;;22.80;52.00;;;;;;6227886;27;81001;-62
2023/10/10 02:25:48;;;;;;;3.50;2.95;;;22.80;51.80;;;;;;6229952;28;80991;-62
2023/10/10 02:28:49;;;;;;;3.63;2.80;;;22.80;51.70;;;;;;6226975;27;80696;-62
2023/10/10 02:35:26;;;;;;;3.40;2.53;;;22.80;51.80;;;;;;6227524;27;81022;-62
2023/10/10 02:38:31;;;;;;;3.05;2.70;;;22.80;51.70;;;;;;6219022;28;80540;-63
2023/10/10 02:41:38;;;;;;;3.33;2.53;;;22.90;51.50;;;;;;6228014;28;81956;-63
2023/10/10 02:44:46;;;;;;;4.65;2.85;;;22.90;51.50;;;;;;6228687;27;84722;-64
2023/10/10 02:47:52;;;;;;;3.88;3.00;;;22.90;51.50;;;;;;6207171;28;80397;-64
2023/10/10 02:50:53;;;;;;;4.45;2.92;;;22.90;51.50;;;;;;6215176;27;83724;-68
2023/10/10 02:53:53;;;;;;;3.90;3.10;;;22.90;51.30;;;;;;6236412;27;82985;-69
2023/10/10 02:56:56;;;;;;;4.20;2.40;;;22.90;51.40;;;;;;6226460;27;80132;-69
2023/10/10 03:00:15;;;;;;;3.45;3.15;;;22.90;51.40;;;;;;6217423;28;82670;-67
2023/10/10 03:03:18;;;;;;;3.63;2.97;;;22.90;51.40;;;;;;6206794;28;81444;-69
2023/10/10 03:06:28;;;;;;;3.05;2.72;;;22.90;51.40;;;;;;6226081;27;83791;-68
2023/10/10 03:09:38;;;;;;;4.97;3.40;;;22.90;51.50;;;;;;6225907;28;82967;-71
2023/10/10 03:12:41;;;;;;;3.35;2.63;;;22.90;52.10;;;;;;6219726;28;83113;-59
2023/10/10 03:15:51;;;;;;;4.05;2.78;;;22.90;51.60;;;;;;6215024;28;83144;-61
2023/10/10 03:23:07;;;;;;;3.53;2.72;;;22.80;51.60;;;;;;6201193;28;80259;-60
2023/10/10 03:25:36;;;;;;;4.25;3.00;;;22.80;51.60;;;;;;6205367;28;82009;-60
2023/10/10 03:28:47;;;;;;;2.72;2.45;;;22.80;51.60;;;;;;6206338;28;83199;-63
2023/10/10 03:31:55;;;;;;;3.38;2.65;;;22.80;51.60;;;;;;6205791;28;80530;-63
2023/10/10 03:34:57;;;;;;;3.92;2.53;;;22.80;51.70;;;;;;6209511;28;80639;-66
2023/10/10 03:38:04;;;;;;;3.78;2.55;;;22.80;51.50;;;;;;6226740;28;82352;-65
2023/10/10 05:23:50;;;;;;;8.13;5.28;;;22.00;50.00;;;;;;6213931;28;85069;-64
2023/10/10 05:26:54;;;;;;;6.95;4.80;;;22.00;50.10;;;;;;6200188;28;80623;-65
2023/10/10 05:29:54;;;;;;;10.27;4.93;;;21.90;50.10;;;;;;6208134;28;81230;-63
2023/10/10 05:33:01;;;;;;;9.80;5.07;;;21.90;50.20;;;;;;6200140;28;80658;-64
2023/10/10 05:36:13;;;;;;;8.10;5.18;;;21.90;50.20;;;;;;6201179;28;82601;-64
2023/10/10 05:39:21;;;;;;;9.35;4.88;;;21.90;50.30;;;;;;6198118;28;81225;-64
2023/10/10 05:42:25;;;;;;;7.53;5.35;;;21.80;50.30;;;;;;6217745;28;81492;-64
2023/10/10 05:45:25;;;;;;;7.28;4.80;;;21.80;50.40;;;;;;6207521;28;87559;-64
2023/10/10 05:48:26;;;;;;;7.05;5.35;;;21.80;50.50;;;;;;6213176;28;80923;-64
2023/10/10 05:51:27;;;;;;;9.85;5.05;;;21.70;50.50;;;;;;6210835;27;80480;-64
2023/10/10 05:54:27;;;;;;;8.45;5.10;;;21.70;50.60;;;;;;6218474;27;80459;-62
2023/10/10 05:57:28;;;;;;;6.85;4.90;;;21.70;50.70;;;;;;6228979;28;80451;-63
2023/10/10 06:00:28;;;;;;;8.40;5.38;;;21.70;50.70;;;;;;6209356;28;80584;-63
2023/10/10 06:03:31;;;;;;;8.85;5.00;;;21.70;50.70;;;;;;6208670;28;81059;-63
2023/10/10 06:06:32;;;;;;;8.48;4.68;;;21.60;50.70;;;;;;6200929;28;80442;-62
2023/10/10 06:09:34;;;;;;;7.40;4.78;;;21.60;50.80;;;;;;6211242;28;84017;-61
2023/10/10 06:12:36;;;;;;;6.85;4.90;;;21.60;50.80;;;;;;6224422;27;80373;-64
2023/10/10 06:15:37;;;;;;;9.88;4.85;;;21.60;50.90;;;;;;6225121;27;80682;-65
2023/10/10 06:18:41;;;;;;;6.50;4.88;;;21.50;50.90;;;;;;6208828;28;82158;-64
2023/10/10 06:21:42;;;;;;;6.88;4.68;;;21.50;50.90;;;;;;6218070;27;80516;-64
2023/10/10 06:24:43;;;;;;;6.35;5.03;;;21.50;50.90;;;;;;6218963;27;80411;-64
2023/10/10 06:27:45;;;;;;;7.70;5.05;;;21.50;50.90;;;;;;6232365;27;80334;-64
2023/10/10 06:30:46;;;;;;;7.57;5.45;;;21.50;51.00;;;;;;6224495;28;81273;-62
2023/10/10 06:33:49;;;;;;;7.10;5.32;;;21.50;51.00;;;;;;6236691;27;82275;-62
2023/10/10 06:36:51;;;;;;;10.02;5.72;;;21.40;51.00;;;;;;6223099;27;80539;-62
2023/10/10 06:39:55;;;;;;;10.02;5.57;;;21.40;51.00;;;;;;6226789;27;80689;-62
2023/10/10 06:42:56;;;;;;;8.15;5.65;;;21.40;51.10;;;;;;6227132;27;80903;-62
2023/10/10 06:45:56;;;;;;;8.43;5.80;;;21.40;51.10;;;;;;6228862;27;80175;-62
2023/10/10 06:49:04;;;;;;;11.15;4.90;;;21.40;51.20;;;;;;6226773;27;80776;-63
2023/10/10 06:52:04;;;;;;;8.25;5.55;;;21.40;51.30;;;;;;6227481;27;80889;-64
2023/10/10 06:55:12;;;;;;;7.68;4.85;;;21.40;51.40;;;;;;6227740;27;80235;-63
2023/10/10 06:58:14;;;;;;;7.95;5.40;;;21.40;51.40;;;;;;6229721;28;80838;-62
2023/10/10 07:01:19;;;;;;;6.65;4.90;;;21.40;51.40;;;;;;6228334;27;80919;-63
2023/10/10 07:04:19;;;;;;;8.13;5.77;;;21.40;51.40;;;;;;6220975;27;80324;-63
2023/10/10 07:07:20;;;;;;;7.97;5.50;;;21.30;51.50;;;;;;6219494;27;80699;-65
2023/10/10 07:10:33;;;;;;;8.10;5.60;;;21.30;51.50;;;;;;6232357;27;82811;-64
2023/10/10 07:13:35;;;;;;;9.93;5.32;;;21.30;51.40;;;;;;6228318;27;80262;-65
2023/10/10 07:16:39;;;;;;;10.75;5.78;;;21.30;51.50;;;;;;6212427;28;81411;-64
2023/10/10 07:23:07;;;;;;;7.80;5.15;;;21.30;51.50;;;;;;6205713;28;81114;-64
2023/10/10 07:26:18;;;;;;;8.05;5.70;;;21.30;51.50;;;;;;6229806;28;80365;-63
2023/10/10 07:29:27;;;;;;;7.47;5.20;;;21.30;51.50;;;;;;6210120;28;80072;-63
2023/10/10 07:32:29;;;;;;;10.50;5.80;;;21.30;51.60;;;;;;6203813;28;82482;-63
2023/10/10 07:35:35;;;;;;;8.30;5.80;;;21.30;51.60;;;;;;6204281;28;80761;-63
2023/10/10 07:38:36;;;;;;;9.43;5.80;;;21.30;51.60;;;;;;6227435;28;86249;-65
2023/10/10 07:41:36;;;;;;;8.75;6.00;;;21.30;51.60;;;;;;6204535;28;81344;-64
2023/10/10 07:44:37;;;;;;;12.57;5.70;;;21.30;51.60;;;;;;6210557;28;80515;-65
2023/10/10 07:48:38;;;;;;;10.90;6.20;;;21.30;51.70;;;;;;6204575;28;80442;-65
2023/10/10 07:51:07;;;;;;;9.20;6.00;;;21.30;51.70;;;;;;6210633;28;80544;-65
2023/10/10 07:54:12;;;;;;;11.50;6.22;;;21.30;51.60;;;;;;6206204;28;81153;-65
2023/10/10 07:57:22;;;;;;;9.65;6.43;;;21.30;51.70;;;;;;6203309;28;80556;-65
2023/10/10 08:00:27;;;;;;;14.68;6.20;;;21.30;51.70;;;;;;6203642;28;80383;-65
2023/10/10 08:03:31;;;;;;;8.63;6.03;;;21.30;51.70;;;;;;6203169;28;81939;-65
2023/10/10 08:06:33;;;;;;;9.27;6.07;;;21.30;51.80;;;;;;6224734;28;83636;-65
2023/10/10 08:09:37;;;;;;;10.85;7.15;;;21.30;51.70;;;;;;6227159;28;80358;-65
2023/10/10 08:12:37;;;;;;;11.70;7.03;;;21.30;51.80;;;;;;6226467;27;81729;-65
2023/10/10 08:15:48;;;;;;;9.02;5.88;;;21.30;51.90;;;;;;6227207;28;81112;-64
2023/10/10 08:21:49;;;;;;;11.25;6.15;;;21.30;51.70;;;;;;6226865;27;81152;-61
2023/10/10 08:24:50;;;;;;;9.07;6.22;;;21.30;51.80;;;;;;6240012;27;80307;-61
2023/10/10 08:27:50;;;;;;;11.88;6.40;;;21.30;51.80;;;;;;6226037;27;81018;-61
2023/10/10 08:30:51;;;;;;;12.25;5.43;;;21.40;52.00;;;;;;6227059;27;81347;-61
2023/10/10 08:33:51;;;;;;;9.77;5.90;;;21.40;51.90;;;;;;6227349;27;81913;-60
2023/10/10 08:37:02;;;;;;;13.13;6.85;;;21.40;52.00;;;;;;6225415;27;80544;-60
2023/10/10 08:40:15;;;;;;;9.60;5.85;;;21.40;52.00;;;;;;6202360;28;82812;-61
2023/10/10 08:43:16;;;;;;;9.27;6.13;;;21.40;52.00;;;;;;6225175;27;81409;-60
2023/10/10 08:46:16;;;;;;;9.60;5.88;;;21.40;52.10;;;;;;6225225;27;80366;-62
2023/10/10 08:49:17;;;;;;;11.35;6.18;;;21.40;52.00;;;;;;6225438;27;80014;-61
2023/10/10 08:52:19;;;;;;;7.75;5.25;;;21.40;52.10;;;;;;6224876;27;80298;-61
2023/10/10 08:55:29;;;;;;;7.25;5.18;;;21.40;52.10;;;;;;6224654;27;82180;-61
2023/10/10 08:58:33;;;;;;;10.35;5.85;;;21.40;52.20;;;;;;6224561;28;80287;-64
2023/10/10 09:01:35;;;;;;;9.43;5.88;;;21.40;52.20;;;;;;6242654;27;80523;-63
2023/10/10 09:04:36;;;;;;;9.93;5.57;;;21.40;52.10;;;;;;6217282;28;81733;-64
2023/10/10 09:07:42;;;;;;;9.40;6.03;;;21.40;52.20;;;;;;6212618;28;80913;-64
2023/10/10 09:10:43;;;;;;;9.82;5.50;;;21.40;52.30;;;;;;6201996;28;81407;-64
2023/10/10 09:13:43;;;;;;;7.50;5.65;;;21.40;52.20;;;;;;6208061;28;80552;-65
2023/10/10 09:16:44;;;;;;;9.18;6.07;;;21.40;52.30;;;;;;6214911;28;81751;-64
2023/10/10 09:19:47;;;;;;;8.93;6.00;;;21.40;52.30;;;;;;6201563;28;82578;-64
2023/10/10 09:22:52;;;;;;;10.07;5.38;;;21.40;52.30;;;;;;6201515;28;80837;-64
2023/10/10 09:26:08;;;;;;;10.25;5.85;;;21.40;52.40;;;;;;6202228;28;80743;-64
2023/10/10 09:29:15;;;;;;;8.80;5.55;;;21.40;52.40;;;;;;6213686;28;80430;-64
2023/10/10 09:32:17;;;;;;;8.95;5.90;;;21.40;52.50;;;;;;6203463;28;80042;-63
2023/10/10 09:35:20;;;;;;;8.63;5.72;;;21.50;52.40;;;;;;6202596;28;80238;-63
2023/10/10 09:38:21;;;;;;;10.80;5.95;;;21.50;52.40;;;;;;6205861;28;82971;-63
2023/10/10 09:44:53;;;;;;;9.70;5.35;;;21.60;52.40;;;;;;6202296;28;80455;-64
2023/10/10 09:48:04;;;;;;;7.03;5.00;;;21.60;52.40;;;;;;6201461;28;84216;-64
2023/10/10 09:51:08;;;;;;;8.50;5.05;;;21.60;52.40;;;;;;6201727;28;81033;-64
2023/10/10 09:54:18;;;;;;;6.50;4.78;;;21.60;52.40;;;;;;6205768;28;80823;-64
2023/10/10 09:57:18;;;;;;;10.02;5.47;;;21.60;53.20;;;;;;6202435;28;80672;-64
2023/10/10 10:00:30;;;;;;;7.57;4.70;;;21.60;52.50;;;;;;6204124;28;80896;-64
2023/10/10 10:06:37;;;;;;;10.73;4.75;;;21.60;52.60;;;;;;6209275;28;81094;-64
2023/10/10 10:09:38;;;;;;;7.25;5.30;;;21.60;52.50;;;;;;6224331;28;80157;-64
2023/10/10 10:12:41;;;;;;;7.75;4.88;;;21.60;52.50;;;;;;6231392;28;80478;-63
2023/10/10 10:15:48;;;;;;;8.13;4.75;;;21.60;52.30;;;;;;6232833;27;80829;-63
2023/10/10 10:18:52;;;;;;;8.55;5.28;;;21.60;52.40;;;;;;6207137;28;82009;-63
2023/10/10 10:21:55;;;;;;;6.57;4.53;;;21.70;52.40;;;;;;6203938;28;82818;-63
2023/10/10 10:25:20;;;;;;;6.95;4.43;;;21.70;52.50;;;;;;6204427;28;80818;-63
2023/10/10 10:28:25;;;;;;;5.53;4.65;;;21.60;52.30;;;;;;6206869;28;81262;-62
2023/10/10 10:31:28;;;;;;;7.00;4.72;;;21.60;52.30;;;;;;6217769;28;82788;-63
2023/10/10 10:34:32;;;;;;;7.25;4.40;;;21.60;52.30;;;;;;6225903;28;80568;-65
2023/10/10 10:37:32;;;;;;;6.13;4.78;;;21.70;52.50;;;;;;6209643;27;80837;-62
2023/10/10 10:43:41;;;;;;;5.32;4.40;;;21.80;52.40;;;;;;6206259;28;80216;-63
2023/10/10 10:46:47;;;;;;;6.60;4.25;;;21.70;52.40;;;;;;6205666;28;80939;-61
2023/10/10 10:49:48;;;;;;;7.18;5.20;;;21.70;52.40;;;;;;6227762;28;81090;-62
2023/10/10 10:52:49;;;;;;;7.03;4.22;;;21.70;52.40;;;;;;6206734;28;81533;-60
2023/10/10 10:56:24;;;;;;;4.68;3.78;;;21.70;52.50;;;;;;6210002;28;81964;-61
2023/10/10 10:59:12;;;;;;;7.07;4.55;;;21.70;52.70;;;;;;6204093;27;80784;-60
2023/10/10 11:02:15;;;;;;;7.47;4.90;;;21.70;52.60;;;;;;6204197;28;80937;-62
2023/10/10 11:05:15;;;;;;;5.80;4.55;;;21.70;52.60;;;;;;6212664;28;80531;-67
2023/10/10 11:08:19;;;;;;;8.88;5.20;;;21.70;52.70;;;;;;6227950;27;81630;-63
2023/10/10 11:14:32;;;;;;;6.30;4.50;;;21.60;52.60;;;;;;6237089;28;83566;-63
2023/10/10 11:17:38;;;;;;;6.82;4.93;;;21.70;52.60;;;;;;6220057;28;80353;-63
2023/10/10 11:20:55;;;;;;;6.10;4.40;;;21.70;52.70;;;;;;6240362;28;84971;-62
2023/10/10 11:23:57;;;;;;;7.32;4.47;;;21.70;52.70;;;;;;6237599;27;81027;-64
2023/10/10 11:27:13;;;;;;;6.35;4.32;;;21.70;52.70;;;;;;6230089;27;80295;-65
2023/10/10 11:30:24;;;;;;;;;;;21.70;52.70;;;;;;6233712;27;81866;-65
2023/10/10 11:33:24;;;;;;;6.53;4.28;;;21.70;52.80;;;;;;6234499;27;80623;-65
2023/10/10 11:36:37;;;;;;;5.95;4.25;;;21.70;52.70;;;;;;6209897;28;80150;-64
2023/10/10 11:39:46;;;;;;;5.65;4.28;;;21.70;52.70;;;;;;6203039;28;81062;-64
2023/10/10 11:42:47;;;;;;;5.57;3.90;;;21.70;52.80;;;;;;6207495;28;80466;-62
2023/10/10 11:45:51;;;;;;;6.05;3.97;;;21.70;52.90;;;;;;6213219;28;82603;-65
2023/10/10 11:48:51;;;;;;;6.90;3.90;;;21.70;53.00;;;;;;6217122;28;81352;-64
2023/10/10 11:51:53;;;;;;;5.20;3.72;;;21.70;53.00;;;;;;6217547;28;80726;-64
2023/10/10 11:54:55;;;;;;;5.55;4.32;;;21.70;53.00;;;;;;6203172;28;82385;-65
2023/10/10 11:57:58;;;;;;;5.70;4.07;;;21.70;53.20;;;;;;6203908;27;82918;-64
2023/10/10 12:01:10;;;;;;;6.68;4.20;;;21.70;53.00;;;;;;6216725;28;80537;-65
2023/10/10 12:04:20;;;;;;;7.10;4.20;;;21.70;53.10;;;;;;6215721;28;82406;-63
2023/10/10 12:07:24;;;;;;;5.60;3.90;;;21.70;53.10;;;;;;6219067;27;82182;-63
2023/10/10 12:10:39;;;;;;;9.60;4.78;;;21.70;53.10;;;;;;6212307;28;80317;-62
2023/10/10 12:13:43;;;;;;;4.63;3.67;;;21.70;53.00;;;;;;6208551;28;80693;-62
2023/10/10 12:16:49;;;;;;;4.95;3.58;;;21.70;53.20;;;;;;6224593;28;80463;-62
2023/10/10 12:19:50;;;;;;;5.75;4.05;;;21.70;53.20;;;;;;6221968;28;80255;-63
2023/10/10 12:22:51;;;;;;;5.72;4.18;;;21.60;53.30;;;;;;6237727;27;80653;-63
2023/10/10 12:25:54;;;;;;;6.32;4.07;;;21.60;53.30;;;;;;6239649;27;80787;-63
2023/10/10 12:28:54;;;;;;;5.90;3.90;;;21.70;53.50;;;;;;6214079;28;80322;-66
2023/10/10 12:31:57;;;;;;;5.75;4.30;;;21.60;53.30;;;;;;6225432;27;81380;-63
2023/10/10 12:34:59;;;;;;;6.00;4.28;;;21.60;53.40;;;;;;6226161;27;80989;-63
2023/10/10 12:38:01;;;;;;;8.35;4.43;;;21.60;53.50;;;;;;6236695;28;81112;-63
2023/10/10 12:41:03;;;;;;;6.53;4.07;;;21.60;53.50;;;;;;6225035;27;80544;-63
2023/10/10 12:44:06;;;;;;;4.95;3.95;;;21.60;53.50;;;;;;6227841;27;80792;-64
2023/10/10 12:47:07;;;;;;;5.18;4.20;;;21.60;53.50;;;;;;6234612;27;80466;-64
2023/10/10 12:50:13;;;;;;;5.88;4.70;;;21.60;53.50;;;;;;6225471;27;81655;-64
2023/10/10 12:53:19;;;;;;;;;;;21.60;53.50;;;;;;6214988;28;80904;-64
2023/10/10 12:56:21;;;;;;;6.43;4.05;;;21.60;53.60;;;;;;6232155;27;80355;-64
2023/10/10 12:59:28;;;;;;;7.75;4.38;;;21.60;53.60;;;;;;6224065;28;80454;-63
2023/10/10 13:02:28;;;;;;;6.20;4.25;;;21.60;53.60;;;;;;6200211;28;80727;-61
2023/10/10 13:05:29;;;;;;;5.65;3.90;;;21.60;53.70;;;;;;6217959;28;81085;-59
2023/10/10 13:08:39;;;;;;;7.22;4.20;;;21.60;53.70;;;;;;6227050;28;80576;-64
2023/10/10 13:11:45;;;;;;;5.25;3.95;;;21.60;53.90;;;;;;6213623;27;85007;-66
2023/10/10 13:14:53;;;;;;;4.75;3.88;;;21.70;54.00;;;;;;6224307;28;81010;-65
2023/10/10 13:17:53;;;;;;;9.88;4.40;;;21.70;54.00;;;;;;6212709;28;82533;-67
2023/10/10 13:20:54;;;;;;;6.18;4.43;;;21.70;54.20;;;;;;6224570;28;80777;-67
2023/10/10 13:23:54;;;;;;;6.53;4.18;;;21.70;54.70;;;;;;6216334;28;80276;-68
2023/10/10 13:26:55;;;;;;;7.88;4.22;;;21.70;54.20;;;;;;6213633;28;80600;-66
2023/10/10 13:29:56;;;;;;;7.20;4.00;;;21.80;54.40;;;;;;6219234;27;82194;-64
2023/10/10 13:32:56;;;;;;;8.63;4.20;;;21.80;54.70;;;;;;6215729;27;80746;-65
2023/10/10 13:35:57;;;;;;;9.63;4.65;;;21.90;54.60;;;;;;6216775;28;80281;-61
2023/10/10 13:38:59;;;;;;;7.57;4.63;;;21.90;54.50;;;;;;6220778;28;81011;-67
2023/10/10 13:42:00;;;;;;;8.13;4.43;;;21.80;54.70;;;;;;6233695;27;81525;-64
2023/10/10 13:45:10;;;;;;;8.15;4.30;;;21.90;54.80;;;;;;6219671;27;81696;-64
2023/10/10 13:48:13;;;;;;;9.15;4.55;;;21.90;54.90;;;;;;6229347;27;80799;-62
2023/10/10 13:51:15;;;;;;;8.48;4.07;;;21.90;54.80;;;;;;6222165;27;80413;-64
2023/10/10 13:54:16;;;;;;;10.77;4.05;;;21.80;54.70;;;;;;6227186;28;80512;-64
2023/10/10 13:57:16;;;;;;;8.40;4.60;;;21.80;54.90;;;;;;6226509;28;80619;-63
2023/10/10 14:00:33;;;;;;;6.47;4.38;;;21.80;54.80;;;;;;6223704;28;80968;-63
2023/10/10 14:03:35;;;;;;;7.80;4.82;;;21.70;54.80;;;;;;6218505;28;80736;-65
2023/10/10 14:06:45;;;;;;;8.57;4.30;;;21.70;54.80;;;;;;6216889;28;82226;-66
2023/10/10 14:09:49;;;;;;;7.65;4.60;;;21.70;55.10;;;;;;6225181;28;80921;-60
2023/10/10 14:12:50;;;;;;;11.00;3.70;;;21.70;55.20;;;;;;6218999;28;82496;-60
2023/10/10 14:16:03;;;;;;;5.50;3.90;;;21.70;55.40;;;;;;6228951;27;83204;-59
2023/10/10 14:19:04;;;;;;;8.50;3.70;;;21.70;56.20;;;;;;6215039;28;80197;-60
2023/10/10 14:22:10;;;;;;;7.13;4.32;;;21.70;55.60;;;;;;6229042;28;80508;-61
2023/10/10 14:25:12;;;;;;;7.68;4.28;;;21.70;55.70;;;;;;6226586;28;85289;-60
2023/10/10 14:28:16;;;;;;;9.90;4.50;;;21.80;55.60;;;;;;6213853;28;81025;-60
2023/10/10 14:31:17;;;;;;;6.93;4.22;;;21.80;55.60;;;;;;6205872;27;80479;-59
2023/10/10 14:34:24;;;;;;;7.75;3.90;;;21.70;55.50;;;;;;6210631;27;83689;-59
2023/10/10 14:37:25;;;;;;;6.75;4.10;;;21.70;55.50;;;;;;6213333;27;83248;-59
2023/10/10 14:40:25;;;;;;;7.78;4.05;;;21.80;55.60;;;;;;6224769;28;82056;-61
2023/10/10 14:43:26;;;;;;;6.78;4.40;;;21.80;55.80;;;;;;6222723;28;81352;-59
2023/10/10 14:46:31;;;;;;;9.82;3.88;;;21.80;55.80;;;;;;6223780;28;80382;-60
2023/10/10 14:49:31;;;;;;;17.08;5.85;;;21.80;55.80;;;;;;6219905;28;82359;-61
2023/10/10 14:52:36;;;;;;;11.18;4.72;;;21.80;55.80;;;;;;6221911;27;80484;-60
2023/10/10 14:55:39;;;;;;;6.03;3.90;;;21.80;56.00;;;;;;6218737;27;81472;-60
2023/10/10 14:58:40;;;;;;;9.82;4.65;;;21.70;55.80;;;;;;6216572;28;80547;-60
2023/10/10 15:01:41;;;;;;;6.57;3.88;;;21.70;55.90;;;;;;6219816;28;80535;-61
2023/10/10 15:04:41;;;;;;;19.27;4.78;;;21.70;56.30;;;;;;6195363;28;85859;-60
2023/10/10 15:07:43;;;;;;;13.48;4.60;;;21.70;56.20;;;;;;6205397;27;83629;-59
2023/10/10 15:10:43;;;;;;;7.68;4.22;;;21.70;56.50;;;;;;6219366;28;80583;-59
2023/10/10 15:13:44;;;;;;;10.68;4.10;;;21.80;56.40;;;;;;6216703;28;80145;-58
2023/10/10 15:16:47;;;;;;;14.05;3.83;;;21.70;56.30;;;;;;6219816;28;81812;-58
2023/10/10 15:19:47;;;;;;;12.82;4.25;;;21.80;56.50;;;;;;6208507;28;82001;-59
2023/10/10 15:22:51;;;;;;;9.95;4.63;;;21.80;56.80;;;;;;6212202;28;80627;-64
2023/10/10 15:25:52;;;;;;;7.90;4.60;;;21.90;57.20;;;;;;6207954;28;82689;-67
2023/10/10 15:28:52;;;;;;;8.63;5.07;;;21.90;57.30;;;;;;6219217;28;80968;-65
2023/10/10 15:31:54;;;;;;;6.25;4.40;;;22.00;57.60;;;;;;6221872;28;80991;-67
2023/10/10 15:34:54;;;;;;;9.82;4.65;;;22.00;57.40;;;;;;6213644;27;80415;-60
2023/10/10 15:37:55;;;;;;;14.77;4.75;;;22.00;57.40;;;;;;6227733;28;80410;-62
2023/10/10 15:40:56;;;;;;;12.85;4.32;;;22.00;57.70;;;;;;6236008;28;82064;-61
2023/10/10 15:43:59;;;;;;;5.55;3.88;;;22.00;57.50;;;;;;6219580;28;81523;-65
2023/10/10 15:47:02;;;;;;;13.98;5.22;;;22.00;57.10;;;;;;6230100;28;80419;-67
2023/10/10 15:50:03;;;;;;;11.73;7.90;;;22.00;57.00;;;;;;6228005;28;80527;-62
2023/10/10 15:53:05;;;;;;;19.02;14.73;;;22.10;57.90;;;;;;6216358;27;81612;-62
2023/10/10 15:56:13;;;;;;;17.75;11.65;;;22.10;58.00;;;;;;6215277;27;84009;-64
2023/10/10 15:59:14;;;;;;;16.90;12.13;;;22.10;57.80;;;;;;6212859;28;83293;-72
2023/10/10 16:02:15;;;;;;;14.55;10.45;;;22.10;58.10;;;;;;6221787;28;83812;-65
2023/10/10 16:05:16;;;;;;;14.23;9.77;;;22.20;58.40;;;;;;6207660;28;85264;-65
2023/10/10 16:08:16;;;;;;;16.67;9.80;;;22.10;58.10;;;;;;6222032;28;83564;-67
2023/10/10 16:11:17;;;;;;;17.20;8.63;;;22.10;58.00;;;;;;6214718;28;80558;-67
2023/10/10 16:14:18;;;;;;;11.88;8.20;;;22.20;58.10;;;;;;6224885;28;81283;-65
2023/10/10 16:17:18;;;;;;;11.13;6.90;;;22.20;58.30;;;;;;6221443;27;81626;-65
2023/10/10 16:20:22;;;;;;;8.98;6.38;;;22.20;58.00;;;;;;6215031;28;80743;-64
2023/10/10 16:23:23;;;;;;;11.80;6.90;;;22.20;58.10;;;;;;6220726;28;81683;-68
2023/10/10 16:26:24;;;;;;;6.93;5.10;;;22.30;57.70;;;;;;6230835;28;81649;-70
2023/10/10 16:29:25;;;;;;;12.52;6.00;;;22.20;57.20;;;;;;6226426;28;80489;-73
2023/10/10 16:32:26;;;;;;;14.80;6.00;;;22.20;57.30;;;;;;6235898;27;81440;-72
2023/10/10 16:35:27;;;;;;;8.95;6.20;;;22.30;57.80;;;;;;6239919;27;81327;-62
2023/10/10 16:38:35;;;;;;;8.35;5.40;;;22.30;57.20;;;;;;6222856;27;80802;-62
2023/10/10 16:41:35;;;;;;;9.07;5.50;;;22.30;57.30;;;;;;6223948;28;80206;-60
2023/10/10 16:44:36;;;;;;;10.25;5.55;;;22.40;57.40;;;;;;6217668;28;86183;-62
2023/10/10 16:47:41;;;;;;;9.25;5.65;;;22.40;57.40;;;;;;6228510;28;80343;-61
2023/10/10 16:50:42;;;;;;;11.00;4.90;;;22.40;57.50;;;;;;6225081;27;80401;-63
2023/10/10 16:53:45;;;;;;;10.85;5.60;;;22.40;57.30;;;;;;6225637;27;83941;-61
2023/10/10 16:56:46;;;;;;;11.27;5.93;;;22.50;57.30;;;;;;6230249;27;80115;-61
2023/10/10 16:59:46;;;;;;;6.15;4.55;;;22.50;57.00;;;;;;6224783;28;81648;-62
2023/10/10 17:02:49;;;;;;;7.45;5.03;;;22.50;56.80;;;;;;6224203;27;80330;-59
2023/10/10 17:05:50;;;;;;;10.63;4.45;;;22.50;56.90;;;;;;6209714;27;81079;-60
2023/10/10 17:08:54;;;;;;;9.18;5.10;;;22.50;57.00;;;;;;6213948;28;80855;-62
2023/10/10 17:12:02;;;;;;;15.02;6.25;;;22.50;56.80;;;;;;6212862;27;83869;-63
2023/10/10 17:15:04;;;;;;;16.90;6.15;;;22.50;56.90;;;;;;6217019;28;80642;-72
2023/10/10 17:18:08;;;;;;;12.30;5.78;;;22.50;56.60;;;;;;6215450;28;80669;-70
2023/10/10 17:21:09;;;;;;;9.25;6.22;;;22.50;56.40;;;;;;6205015;28;81612;-73
2023/10/10 17:24:09;;;;;;;13.43;6.25;;;22.50;56.60;;;;;;6196612;28;80231;-74
2023/10/10 17:27:10;;;;;;;13.23;7.13;;;22.50;56.50;;;;;;6209322;28;82344;-66
2023/10/10 17:30:14;;;;;;;10.18;6.65;;;22.50;56.30;;;;;;6213292;27;81631;-72
2023/10/10 17:33:14;;;;;;;14.63;7.07;;;22.50;56.30;;;;;;6206776;28;80777;-60
2023/10/10 17:36:15;;;;;;;10.57;6.57;;;22.50;56.60;;;;;;6178353;28;81952;-57
2023/10/10 17:39:16;;;;;;;10.05;6.20;;;22.50;56.20;;;;;;6183727;28;81285;-59
2023/10/10 17:42:17;;;;;;;11.23;6.40;;;22.60;56.30;;;;;;6193421;27;81603;-60
2023/10/10 17:45:17;;;;;;;12.10;6.47;;;22.60;56.40;;;;;;6174484;28;81632;-60
2023/10/10 17:48:19;;;;;;;11.55;6.05;;;22.60;56.40;;;;;;6179861;28;81847;-63
2023/10/10 17:51:19;;;;;;;10.73;6.60;;;22.60;56.40;;;;;;6190472;27;82136;-64
2023/10/10 17:54:20;;;;;;;12.05;6.30;;;22.70;56.50;;;;;;6186997;28;81907;-64
2023/10/10 17:57:22;;;;;;;12.20;6.72;;;22.70;56.60;;;;;;6189170;28;82006;-63
2023/10/10 18:00:22;;;;;;;8.70;5.45;;;22.70;56.50;;;;;;6192825;28;81112;-63
2023/10/10 18:03:23;;;;;;;15.80;6.20;;;22.70;56.50;;;;;;6188045;28;81397;-63